Time;durP1;ratioP1;P1;durP2;ratioP2;P2;SDS_P1;SDS_P2;PMS_P1;PMS_P2;Temp;Humidity;BMP_temperature;BMP_pressure;BME280_temperature;BME280_humidity;BME280_pressure;Samples;Min_cycle;Max_cycle;Signal;HPM_P1;HPM_P2
2021/09/28 00:55:18;;;;;;;2.47;0.70;;;;;;;15.74;74.46;100497.97;1087972;54;20017;-81
2021/09/28 00:56:31;;;;;;;2.47;0.80;;;;;;;15.79;75.42;100505.56;1088322;54;20034;-81
2021/09/28 00:57:36;;;;;;;2.95;0.98;;;;;;;15.58;75.44;100525.75;1088394;54;20045;-82
2021/09/28 00:58:39;;;;;;;3.53;1.15;;;;;;;15.29;76.24;100523.50;1088436;54;20038;-79
2021/09/28 00:59:44;;;;;;;4.05;1.05;;;;;;;15.40;75.84;100536.63;1088399;54;20034;-79
2021/09/28 01:00:49;;;;;;;2.42;0.85;;;;;;;15.55;75.27;100530.63;1088394;54;20030;-81
2021/09/28 01:01:53;;;;;;;2.47;0.82;;;;;;;15.48;75.67;100524.22;1088393;54;20078;-81
2021/09/28 01:03:01;;;;;;;3.25;1.00;;;;;;;15.58;75.13;100519.53;1088370;54;20022;-80
2021/09/28 01:04:04;;;;;;;3.75;0.90;;;;;;;15.56;75.15;100508.91;1088389;54;20030;-80
2021/09/28 01:05:12;;;;;;;4.88;1.15;;;;;;;15.41;75.74;100519.47;1088506;54;20059;-83
2021/09/28 01:06:13;;;;;;;2.97;1.00;;;;;;;15.54;75.37;100518.16;1088261;54;20106;-80
2021/09/28 01:07:18;;;;;;;4.35;1.20;;;;;;;15.55;75.38;100519.84;1089979;47;20018;-81
2021/09/28 01:08:20;;;;;;;2.97;0.98;;;;;;;15.42;75.86;100525.72;1088506;54;20046;-80
2021/09/28 01:09:26;;;;;;;2.47;0.93;;;;;;;15.62;75.02;100525.44;1088457;54;20022;-81
2021/09/28 01:10:27;;;;;;;3.15;1.17;;;;;;;15.43;75.75;100520.16;1092878;39;20698;-79
2021/09/28 01:11:37;;;;;;;3.38;1.02;;;;;;;15.50;75.92;100523.03;1088501;54;20038;-81
2021/09/28 01:12:39;;;;;;;3.80;1.20;;;;;;;15.62;75.29;100528.94;1094227;46;20014;-80
2021/09/28 01:15:29;;;;;;;2.67;1.10;;;;;;;15.68;75.34;100524.75;1088373;54;20030;-80
2021/09/28 01:16:31;;;;;;;3.83;1.23;;;;;;;15.62;75.62;100517.34;1088383;54;20042;-79
2021/09/28 01:17:35;;;;;;;5.32;1.80;;;;;;;15.36;76.05;100526.34;1088484;54;20018;-82
2021/09/28 01:18:44;;;;;;;4.85;1.60;;;;;;;15.26;76.78;100521.97;1088545;54;20054;-82
2021/09/28 01:19:49;;;;;;;4.95;1.70;;;;;;;15.33;76.44;100522.16;1088631;54;20057;-80
2021/09/28 01:20:53;;;;;;;4.00;1.70;;;;;;;15.27;76.42;100523.66;1088441;54;20021;-81
2021/09/28 01:31:29;;;;;;;4.60;2.58;;;;;;;15.04;77.42;100539.56;1088416;54;20050;-80
2021/09/28 01:32:31;;;;;;;5.70;2.80;;;;;;;14.89;77.88;100541.19;1088394;54;20041;-81
2021/09/28 01:33:37;;;;;;;7.20;3.28;;;;;;;14.79;78.25;100538.59;1088397;54;20015;-80
2021/09/28 01:34:39;;;;;;;6.57;2.42;;;;;;;14.87;78.11;100541.34;1088481;54;20728;-80
2021/09/28 01:35:44;;;;;;;6.45;3.30;;;;;;;14.82;78.36;100544.53;1088407;54;20026;-80
2021/09/28 01:36:50;;;;;;;6.47;2.50;;;;;;;14.95;77.69;100544.09;1088180;54;20046;-81
2021/09/28 01:37:54;;;;;;;5.60;2.45;;;;;;;15.15;77.15;100545.66;1088294;54;20038;-83
2021/09/28 01:39:03;;;;;;;4.50;2.20;;;;;;;15.21;77.19;100532.41;1088163;54;20721;-80
2021/09/28 01:40:09;;;;;;;4.70;2.25;;;;;;;15.25;76.94;100538.28;1088317;54;20026;-81
2021/09/28 01:41:12;;;;;;;5.38;2.40;;;;;;;15.23;76.98;100540.31;1088348;54;20041;-82
2021/09/28 01:42:17;;;;;;;3.83;2.13;;;;;;;15.29;76.56;100542.34;1088275;54;20034;-81
2021/09/28 01:43:20;;;;;;;4.88;2.30;;;;;;;15.22;76.62;100550.25;1088099;54;20026;-81
2021/09/28 01:44:33;;;;;;;4.28;1.88;;;;;;;15.30;76.30;100552.13;1088301;54;20015;-82
2021/09/28 01:45:36;;;;;;;4.20;2.03;;;;;;;15.19;77.00;100563.19;1088161;54;20026;-82
2021/09/28 01:46:51;;;;;;;5.32;2.33;;;;;;;15.08;77.10;100557.09;1088008;54;20057;-81
2021/09/28 01:47:56;;;;;;;6.13;2.42;;;;;;;15.25;76.71;100551.75;1088122;54;20027;-81
2021/09/28 01:49:05;;;;;;;4.53;2.17;;;;;;;15.03;77.17;100553.19;1088252;54;20030;-82
2021/09/28 01:50:09;;;;;;;6.18;2.40;;;;;;;15.15;77.03;100551.03;1088237;54;20034;-81
2021/09/28 01:51:14;;;;;;;4.10;1.70;;;;;;;15.18;76.82;100556.13;1088049;54;20018;-82
2021/09/28 01:52:27;;;;;;;5.07;1.80;;;;;;;15.07;77.29;100549.16;1088265;54;20037;-82
2021/09/28 01:53:30;;;;;;;4.25;1.83;;;;;;;15.18;77.33;100558.81;1088378;54;20018;-81
2021/09/28 01:54:35;;;;;;;4.93;1.83;;;;;;;15.37;76.31;100554.97;1088446;54;20646;-83
2021/09/28 01:55:37;;;;;;;4.28;1.60;;;;;;;15.38;76.38;100568.31;1088162;54;20061;-79
2021/09/28 01:56:42;;;;;;;4.03;2.00;;;;;;;15.18;76.76;100564.19;1088269;54;20647;-81
2021/09/28 01:57:44;;;;;;;4.65;2.10;;;;;;;15.20;76.72;100562.19;1088406;54;20082;-81
2021/09/28 01:58:55;;;;;;;4.18;1.92;;;;;;;15.15;76.93;100573.44;1088381;54;20070;-82
2021/09/28 02:00:01;;;;;;;4.93;2.00;;;;;;;15.11;77.00;100566.69;1088280;47;20034;-82
2021/09/28 02:01:03;;;;;;;4.50;2.00;;;;;;;15.15;76.84;100577.97;1088303;54;20026;-82
2021/09/28 02:02:20;;;;;;;3.97;1.70;;;;;;;15.17;76.87;100570.59;1088152;54;20042;-81
2021/09/28 02:03:30;;;;;;;3.90;1.65;;;;;;;15.27;76.46;100571.28;1090366;39;20523;-83
2021/09/28 02:04:35;;;;;;;4.90;2.00;;;;;;;15.09;76.97;100568.69;1088343;54;20019;-80
2021/09/28 02:05:39;;;;;;;6.13;2.00;;;;;;;15.14;76.51;100571.75;1088058;54;20042;-82
2021/09/28 02:06:44;;;;;;;5.88;1.90;;;;;;;15.05;76.91;100572.72;1090729;39;20470;-82
2021/09/28 02:07:55;;;;;;;4.72;1.88;;;;;;;14.96;76.93;100571.81;1088208;54;20023;-81
2021/09/28 02:26:40;;;;;;;3.10;1.10;;;;;;;15.19;75.12;100574.78;1087670;54;20150;-80
2021/09/28 02:27:41;;;;;;;4.25;1.10;;;;;;;15.27;75.06;100571.28;1088184;54;20077;-79
2021/09/28 02:28:57;;;;;;;3.20;1.00;;;;;;;15.38;74.29;100565.63;1087907;54;20030;-80
2021/09/28 02:29:59;;;;;;;4.18;1.00;;;;;;;15.45;74.22;100568.47;1088003;54;20030;-79
2021/09/28 02:31:11;;;;;;;6.47;1.38;;;;;;;15.29;74.32;100567.44;1087986;54;20034;-79
2021/09/28 02:32:13;;;;;;;5.45;1.70;;;;;;;15.38;74.40;100567.44;1088102;54;20035;-81
2021/09/28 02:33:20;;;;;;;4.65;1.13;;;;;;;15.28;74.86;100570.28;1088903;54;20026;-80
2021/09/28 02:34:21;;;;;;;4.60;1.10;;;;;;;15.32;74.55;100568.94;1101902;46;20030;-80
2021/09/28 02:35:30;;;;;;;3.75;1.10;;;;;;;15.23;74.53;100575.31;1089061;54;20094;-81
2021/09/28 02:36:32;;;;;;;3.40;1.13;;;;;;;15.34;74.22;100566.94;1088562;54;20041;-81
2021/09/28 02:37:36;;;;;;;4.13;0.90;;;;;;;15.40;74.18;100565.44;1088328;54;20038;-79
2021/09/28 02:38:39;;;;;;;4.65;1.20;;;;;;;15.45;73.80;100565.78;1088155;54;20035;-80
2021/09/28 02:39:43;;;;;;;2.97;0.90;;;;;;;15.51;73.95;100570.53;1088449;46;20061;-80
2021/09/28 02:40:45;;;;;;;2.38;0.90;;;;;;;15.57;73.44;100569.03;1088382;54;20014;-81
2021/09/28 02:41:57;;;;;;;6.55;1.33;;;;;;;15.39;73.73;100561.91;1088245;54;20041;-80
2021/09/28 02:43:01;;;;;;;4.00;1.00;;;;;;;15.31;74.17;100569.94;1088486;54;20043;-81
2021/09/28 02:44:08;;;;;;;3.10;1.00;;;;;;;15.34;73.67;100577.72;1088453;54;20026;-81
2021/09/28 02:45:10;;;;;;;5.68;1.45;;;;;;;15.28;74.12;100573.00;1088307;54;20588;-79
2021/09/28 02:46:18;;;;;;;6.03;1.35;;;;;;;15.29;74.14;100577.38;1088102;54;20034;-80
2021/09/28 02:47:27;;;;;;;3.83;1.52;;;;;;;15.34;73.80;100574.19;1089122;39;20428;-79
2021/09/28 02:48:34;;;;;;;5.20;1.23;;;;;;;15.27;73.82;100571.28;1088179;54;20030;-78
2021/09/28 02:49:36;;;;;;;4.47;1.52;;;;;;;15.14;74.23;100571.75;1088056;54;20038;-79
2021/09/28 02:50:41;;;;;;;4.03;1.30;;;;;;;15.32;73.92;100571.63;1088322;54;20664;-80
2021/09/28 02:51:43;;;;;;;4.93;1.30;;;;;;;15.22;74.17;100569.09;1089534;39;20491;-80
2021/09/28 02:52:48;;;;;;;5.63;1.40;;;;;;;15.10;74.46;100573.06;1087741;54;20034;-82
2021/09/28 02:53:49;;;;;;;4.05;1.10;;;;;;;15.16;74.69;100579.66;1087833;54;20041;-80
2021/09/28 02:54:54;;;;;;;9.95;1.55;;;;;;;15.15;74.09;100576.13;1089572;39;20514;-80
2021/09/28 02:55:58;;;;;;;4.22;1.30;;;;;;;15.27;74.11;100582.06;1088448;54;20053;-81
2021/09/28 02:57:03;;;;;;;3.78;0.98;;;;;;;15.25;74.03;100576.84;1088650;39;20511;-80
2021/09/28 02:58:08;;;;;;;4.40;1.17;;;;;;;15.14;74.36;100571.75;1088185;54;20022;-80
2021/09/28 02:59:11;;;;;;;3.75;0.90;;;;;;;15.18;73.91;100577.66;1088146;54;20045;-81
2021/09/28 03:00:16;;;;;;;4.95;1.10;;;;;;;15.03;74.48;100578.25;1088149;54;20023;-80
2021/09/28 03:01:18;;;;;;;5.22;1.20;;;;;;;15.00;74.58;100575.03;1088183;46;20578;-81
2021/09/28 03:02:46;;;;;;;3.40;1.33;;;;;;;15.08;74.50;100581.31;1088579;54;20030;-81
2021/09/28 03:03:51;;;;;;;3.72;1.20;;;;;;;14.89;74.74;100585.09;1088950;54;20011;-81
2021/09/28 03:04:55;;;;;;;5.22;1.17;;;;;;;14.88;74.88;100580.69;1088842;54;20079;-81
2021/09/28 03:05:59;;;;;;;4.05;1.70;;;;;;;14.80;75.47;100583.34;1088591;46;20118;-79
2021/09/28 03:07:09;;;;;;;3.72;1.10;;;;;;;14.96;74.70;100587.97;1088417;54;20054;-79
2021/09/28 03:08:13;;;;;;;5.57;1.35;;;;;;;14.88;75.14;100583.38;1088726;54;20098;-83
2021/09/28 03:09:22;;;;;;;4.28;1.23;;;;;;;14.72;75.18;100584.16;1088958;54;20065;-81
2021/09/28 03:10:26;;;;;;;4.82;1.45;;;;;;;14.78;75.14;100580.00;1088611;54;20058;-80
2021/09/28 03:11:30;;;;;;;3.25;0.93;;;;;;;14.76;75.37;100580.13;1088437;54;20038;-79
2021/09/28 03:12:38;;;;;;;4.57;1.10;;;;;;;14.67;75.31;100581.09;1088352;54;20671;-80
2021/09/28 03:13:42;;;;;;;3.38;1.10;;;;;;;14.82;75.09;100579.53;1090790;39;20448;-80
2021/09/28 03:14:54;;;;;;;3.28;0.75;;;;;;;14.98;74.85;100583.28;1088993;54;20038;-83
2021/09/28 03:15:59;;;;;;;3.13;1.00;;;;;;;14.98;74.67;100583.28;1088828;54;20038;-82
2021/09/28 03:17:02;;;;;;;2.97;1.00;;;;;;;15.03;74.39;100582.81;1088994;54;20022;-83
2021/09/28 03:18:07;;;;;;;3.53;1.20;;;;;;;15.03;74.19;100578.25;1088412;54;20033;-78
2021/09/28 03:19:09;;;;;;;5.18;1.00;;;;;;;14.97;74.64;100581.59;1088260;54;20043;-80
2021/09/28 03:20:14;;;;;;;3.80;0.90;;;;;;;15.07;74.53;100586.84;1088369;54;20039;-83
2021/09/28 03:21:22;;;;;;;3.05;1.00;;;;;;;15.06;74.14;100583.31;1088703;54;20078;-81
2021/09/28 03:22:23;;;;;;;5.03;1.23;;;;;;;14.81;75.01;100588.59;1088426;54;20049;-81
2021/09/28 03:23:29;;;;;;;3.50;1.10;;;;;;;14.98;74.79;100588.66;1088245;54;20035;-80
2021/09/28 03:24:30;;;;;;;5.63;1.42;;;;;;;14.81;75.38;100591.28;1088380;54;20591;-80
2021/09/28 03:25:41;;;;;;;4.35;1.10;;;;;;;14.95;74.59;100591.69;1088386;54;20026;-80
2021/09/28 03:26:42;;;;;;;;;;;;;;;14.83;75.35;100585.72;1090324;46;20035;-82
2021/09/28 03:27:49;;;;;;;4.47;1.48;;;;;;;14.92;74.65;100590.16;1089269;39;20466;-79
2021/09/28 03:28:52;;;;;;;5.47;1.30;;;;;;;14.77;75.20;100597.97;1088378;54;20038;-80
2021/09/28 03:29:56;;;;;;;4.20;1.25;;;;;;;14.84;75.21;100602.72;1087922;54;20021;-80
2021/09/28 03:31:01;;;;;;;3.92;1.10;;;;;;;14.98;74.72;100596.75;1087840;54;20015;-80
2021/09/28 03:32:03;;;;;;;3.55;1.20;;;;;;;14.91;74.55;100587.63;1087843;54;20030;-80
2021/09/28 03:33:08;;;;;;;4.90;1.40;;;;;;;14.79;75.29;100587.91;1087199;54;20748;-79
2021/09/28 03:34:16;;;;;;;5.15;1.40;;;;;;;14.66;75.61;100591.03;1087649;54;20027;-79
2021/09/28 03:35:20;;;;;;;5.70;1.85;;;;;;;14.56;76.01;100594.75;1088149;54;20018;-82
2021/09/28 03:36:31;;;;;;;5.05;1.80;;;;;;;14.54;76.31;100602.19;1088209;54;20023;-82
2021/09/28 03:37:32;;;;;;;6.00;1.63;;;;;;;14.50;76.49;100605.16;1090344;39;20522;-80
2021/09/28 03:38:37;;;;;;;4.68;1.50;;;;;;;14.56;76.30;100597.44;1090480;46;20037;-79
2021/09/28 03:39:39;;;;;;;4.28;1.95;;;;;;;14.56;76.72;100605.53;1087852;54;20049;-79
2021/09/28 03:40:50;;;;;;;4.45;1.75;;;;;;;14.70;76.12;100607.69;1088064;54;20086;-81
2021/09/28 03:41:52;;;;;;;4.55;2.05;;;;;;;14.61;76.22;100603.22;1087742;54;20033;-81
2021/09/28 03:43:01;;;;;;;5.43;2.03;;;;;;;14.74;76.06;100597.44;1087746;54;20019;-79
2021/09/28 03:44:03;;;;;;;4.13;1.85;;;;;;;14.80;75.89;100597.66;1087686;54;20111;-80
2021/09/28 03:45:09;;;;;;;5.03;2.00;;;;;;;14.68;75.91;100601.63;1087948;54;20122;-81
2021/09/28 03:46:11;;;;;;;5.93;2.38;;;;;;;14.62;76.31;100599.53;1087986;54;20053;-81
2021/09/28 03:47:21;;;;;;;5.18;1.90;;;;;;;14.55;76.97;100598.47;1087997;54;20034;-80
2021/09/28 03:48:23;;;;;;;6.20;2.60;;;;;;;14.48;77.17;100609.03;1087624;54;20018;-80
2021/09/28 03:49:27;;;;;;;7.88;2.35;;;;;;;14.59;76.51;100602.53;1087727;54;20030;-79
2021/09/28 03:50:29;;;;;;;4.55;2.50;;;;;;;14.46;77.38;100603.78;1087585;54;20054;-79
2021/09/28 03:51:34;;;;;;;5.70;2.40;;;;;;;14.52;76.99;100596.94;1087610;54;20627;-80
2021/09/28 03:52:38;;;;;;;5.82;2.60;;;;;;;14.41;77.57;100603.41;1088027;54;20086;-83
2021/09/28 03:53:42;;;;;;;5.65;2.38;;;;;;;14.31;77.67;100598.09;1088082;54;20123;-79
2021/09/28 03:54:47;;;;;;;9.43;2.70;;;;;;;14.32;77.65;100604.34;1090219;39;20611;-80
2021/09/28 03:55:50;;;;;;;5.07;2.72;;;;;;;14.32;77.92;100612.41;1088070;54;20030;-80
2021/09/28 03:57:00;;;;;;;5.53;2.80;;;;;;;14.39;78.04;100601.91;1087870;54;20035;-80
2021/09/28 03:58:05;;;;;;;5.32;2.47;;;;;;;14.43;77.90;100605.94;1088134;54;20578;-81
2021/09/28 03:59:23;;;;;;;4.20;2.22;;;;;;;14.54;77.27;100607.56;1088043;54;20069;-82
2021/09/28 04:00:25;;;;;;;4.35;2.30;;;;;;;14.58;76.89;100604.38;1088087;54;20034;-80
2021/09/28 04:01:38;;;;;;;4.95;2.30;;;;;;;14.43;77.78;100605.94;1088391;54;20038;-81
2021/09/28 04:02:40;;;;;;;5.75;2.60;;;;;;;14.49;77.30;100603.47;1088564;54;20034;-82
2021/09/28 04:03:45;;;;;;;4.63;2.38;;;;;;;14.59;76.99;100600.69;1088386;54;20034;-81
2021/09/28 04:04:47;;;;;;;5.30;2.65;;;;;;;14.62;77.25;100605.75;1088434;54;20083;-82
2021/09/28 04:05:52;;;;;;;5.00;2.63;;;;;;;14.45;77.45;100602.09;1088451;54;20678;-80
2021/09/28 04:06:54;;;;;;;5.53;3.00;;;;;;;14.41;77.98;100607.94;1088983;46;20030;-80
2021/09/28 04:07:58;;;;;;;4.97;2.80;;;;;;;14.29;78.37;100604.66;1088444;54;20035;-82
2021/09/28 04:09:03;;;;;;;5.88;2.75;;;;;;;14.43;77.97;100606.81;1088757;46;20042;-81
2021/09/28 04:10:13;;;;;;;6.43;2.55;;;;;;;14.51;77.79;100603.31;1088292;54;20019;-79
2021/09/28 04:11:18;;;;;;;7.07;2.75;;;;;;;14.46;77.77;100600.25;1088404;54;20034;-82
2021/09/28 04:12:20;;;;;;;5.32;2.55;;;;;;;14.55;77.65;100598.47;1089818;46;20038;-80
2021/09/28 04:13:29;;;;;;;5.10;2.60;;;;;;;14.43;77.66;100606.81;1088211;54;20049;-80
2021/09/28 04:14:31;;;;;;;6.32;3.20;;;;;;;14.31;78.25;100613.41;1088436;54;20070;-81
2021/09/28 04:15:42;;;;;;;5.30;2.88;;;;;;;14.40;78.16;100601.72;1090204;39;20550;-78
2021/09/28 04:16:44;;;;;;;4.68;2.42;;;;;;;14.48;77.57;100603.63;1088381;54;20058;-80
2021/09/28 04:17:56;;;;;;;4.15;2.30;;;;;;;14.55;77.76;100604.69;1088204;54;20102;-80
2021/09/28 04:18:58;;;;;;;3.88;2.22;;;;;;;14.63;77.29;100609.28;1087885;54;20038;-80
2021/09/28 04:20:03;;;;;;;3.22;1.70;;;;;;;14.70;77.14;100607.69;1088146;54;20030;-79
2021/09/28 04:21:08;;;;;;;3.80;1.90;;;;;;;14.75;76.94;100616.13;1087955;54;20042;-80
2021/09/28 04:22:26;;;;;;;4.13;2.20;;;;;;;14.62;77.26;100615.69;1087904;54;20025;-80
2021/09/28 04:23:28;;;;;;;5.32;2.58;;;;;;;14.66;77.19;100620.63;1087635;54;20010;-81
2021/09/28 04:24:33;;;;;;;5.25;2.17;;;;;;;14.71;76.92;100622.84;1087716;54;20026;-80
2021/09/28 04:25:47;;;;;;;5.03;2.08;;;;;;;14.73;76.84;100617.28;1087973;54;20046;-79
2021/09/28 04:26:52;;;;;;;3.80;1.90;;;;;;;14.78;76.76;100620.38;1087624;54;20065;-80
2021/09/28 04:27:54;;;;;;;6.05;2.53;;;;;;;14.85;76.40;100625.94;1088199;54;20034;-79
2021/09/28 04:29:01;;;;;;;3.97;2.28;;;;;;;14.88;76.46;100625.63;1087689;54;20052;-80
2021/09/28 04:30:03;;;;;;;5.82;2.22;;;;;;;14.87;76.41;100623.94;1088134;54;20038;-79
2021/09/28 04:31:15;;;;;;;5.15;2.90;;;;;;;14.80;76.26;100621.88;1087097;39;20645;-79
2021/09/28 04:32:17;;;;;;;7.07;2.35;;;;;;;14.82;76.60;100614.50;1087793;54;20034;-81
2021/09/28 04:33:22;;;;;;;3.88;2.15;;;;;;;14.85;76.10;100616.03;1087760;54;20041;-80
2021/09/28 04:34:24;;;;;;;6.03;2.72;;;;;;;14.76;76.58;100617.81;1087984;54;20035;-80
2021/09/28 04:35:37;;;;;;;5.90;3.30;;;;;;;14.72;76.94;100624.53;1088046;54;20030;-80
2021/09/28 04:36:42;;;;;;;6.72;2.90;;;;;;;14.70;76.82;100621.16;1087690;54;20061;-81
2021/09/28 04:37:44;;;;;;;3.88;2.40;;;;;;;14.72;76.57;100623.66;1088211;54;20069;-80
2021/09/28 04:38:53;;;;;;;6.40;3.20;;;;;;;14.66;76.88;100625.09;1088039;54;20082;-79
2021/09/28 04:39:58;;;;;;;4.68;2.78;;;;;;;14.65;76.88;100628.78;1088089;54;20034;-80
2021/09/28 04:41:04;;;;;;;5.07;3.13;;;;;;;14.60;76.73;100626.56;1087237;54;20027;-79
2021/09/28 04:42:06;;;;;;;6.60;3.05;;;;;;;14.59;76.67;100624.91;1087639;54;20042;-79
2021/09/28 04:43:11;;;;;;;6.63;2.78;;;;;;;14.62;76.99;100632.66;1087599;54;20034;-78
2021/09/28 04:44:15;;;;;;;3.80;2.08;;;;;;;14.61;76.72;100628.28;1087333;54;20038;-81
2021/09/28 04:45:29;;;;;;;4.20;2.00;;;;;;;14.58;76.93;100628.59;1091315;39;20516;-79
2021/09/28 04:46:33;;;;;;;4.63;2.13;;;;;;;14.59;76.78;100630.31;1087855;54;20034;-80
2021/09/28 04:47:38;;;;;;;4.22;2.10;;;;;;;14.63;76.79;100630.81;1087565;54;20923;-80
2021/09/28 04:48:42;;;;;;;4.00;2.20;;;;;;;14.62;76.67;100629.97;1087708;54;20027;-79
2021/09/28 04:49:48;;;;;;;4.40;1.92;;;;;;;14.65;76.48;100634.19;1087926;54;20023;-79
2021/09/28 04:50:52;;;;;;;4.70;2.20;;;;;;;14.63;76.75;100637.03;1088073;54;20034;-80
2021/09/28 04:51:56;;;;;;;4.32;2.13;;;;;;;14.71;76.33;100640.81;1088137;54;20030;-80
2021/09/28 04:53:01;;;;;;;3.95;2.50;;;;;;;14.71;76.52;100632.75;1087636;54;20030;-79
2021/09/28 04:54:12;;;;;;;6.95;2.60;;;;;;;14.66;76.76;100641.25;1087901;54;20054;-80
2021/09/28 04:55:17;;;;;;;3.95;2.20;;;;;;;14.68;76.50;100636.59;1087988;54;20031;-80
2021/09/28 04:56:19;;;;;;;4.20;2.00;;;;;;;14.68;76.60;100636.59;1087841;54;20034;-81
2021/09/28 04:57:23;;;;;;;4.10;2.38;;;;;;;14.70;76.41;100634.59;1088132;54;20022;-80
2021/09/28 04:58:26;;;;;;;4.80;2.30;;;;;;;14.68;76.50;100639.28;1088106;54;20042;-80
2021/09/28 04:59:33;;;;;;;7.38;2.67;;;;;;;14.65;76.69;100634.19;1091637;39;20409;-80
2021/09/28 05:00:35;;;;;;;6.38;2.58;;;;;;;14.66;76.63;100626.00;1088332;54;20050;-80
2021/09/28 05:02:23;;;;;;;4.45;2.35;;;;;;;14.63;76.71;100633.50;1087999;54;20045;-80
2021/09/28 05:03:27;;;;;;;5.40;2.58;;;;;;;14.60;76.87;100628.44;1088112;54;20041;-80
2021/09/28 05:04:29;;;;;;;4.85;2.47;;;;;;;14.61;76.81;100636.34;1088094;54;20023;-78
2021/09/28 05:05:34;;;;;;;4.88;2.17;;;;;;;14.63;76.81;100630.81;1088128;54;20014;-81
2021/09/28 05:06:41;;;;;;;4.13;2.25;;;;;;;14.63;76.42;100625.44;1091424;46;20073;-81
2021/09/28 05:07:46;;;;;;;4.82;2.55;;;;;;;14.64;76.60;100621.75;1088282;54;20027;-82
2021/09/28 05:08:48;;;;;;;3.90;1.90;;;;;;;14.65;76.36;100637.72;1088435;54;20041;-81
2021/09/28 05:09:52;;;;;;;4.32;2.35;;;;;;;14.58;76.81;100633.13;1088179;54;20026;-80
2021/09/28 05:10:55;;;;;;;5.47;2.60;;;;;;;14.59;76.71;100633.00;1087949;54;20575;-80
2021/09/28 05:12:00;;;;;;;5.65;2.50;;;;;;;14.62;76.66;100626.44;1088370;54;20086;-81
2021/09/28 05:13:03;;;;;;;5.10;2.08;;;;;;;14.65;76.45;100635.03;1088335;54;20049;-82
2021/09/28 05:14:08;;;;;;;6.90;2.85;;;;;;;14.57;76.83;100623.34;1090892;46;20398;-80
2021/09/28 05:15:23;;;;;;;4.88;2.38;;;;;;;14.59;76.69;100641.06;1088164;54;20509;-79
2021/09/28 05:16:25;;;;;;;6.95;2.60;;;;;;;14.56;76.44;100635.13;1087951;54;20038;-80
2021/09/28 05:17:37;;;;;;;4.82;2.67;;;;;;;14.53;76.50;100632.75;1088046;54;20591;-80
2021/09/28 05:18:41;;;;;;;4.25;2.53;;;;;;;14.54;76.84;100635.28;1088125;54;20018;-82
2021/09/28 05:19:59;;;;;;;4.55;2.33;;;;;;;14.53;76.40;100635.44;1088145;54;20018;-80
2021/09/28 05:21:04;;;;;;;4.05;2.20;;;;;;;14.56;76.55;100633.28;1088197;54;20030;-81
2021/09/28 05:22:13;;;;;;;6.25;2.85;;;;;;;14.57;76.40;100640.38;1088214;54;20042;-81
2021/09/28 05:23:46;;;;;;;4.72;2.50;;;;;;;14.54;76.31;100634.47;1088135;54;20052;-80
2021/09/28 05:24:51;;;;;;;6.35;2.58;;;;;;;14.56;76.70;100641.38;1088167;54;20049;-79
2021/09/28 05:25:56;;;;;;;8.02;3.17;;;;;;;14.51;76.83;100636.44;1088141;54;20018;-80
2021/09/28 05:27:01;;;;;;;5.18;3.00;;;;;;;14.48;76.75;100634.06;1086774;54;20083;-81
2021/09/28 05:28:05;;;;;;;4.72;3.00;;;;;;;14.53;76.54;100640.84;1086188;54;20038;-78
2021/09/28 05:29:09;;;;;;;7.75;3.40;;;;;;;14.50;76.92;100642.81;1086603;54;20035;-76
2021/09/28 05:30:13;;;;;;;5.90;3.88;;;;;;;14.48;76.96;100647.50;1089049;39;20468;-78
2021/09/28 05:31:21;;;;;;;7.22;3.20;;;;;;;14.55;76.84;100646.91;1086909;54;20721;-80
2021/09/28 05:32:23;;;;;;;6.07;3.10;;;;;;;14.59;76.47;100642.88;1086272;54;20107;-79
2021/09/28 05:33:27;;;;;;;5.32;2.83;;;;;;;14.55;76.52;100653.13;1086467;54;20061;-79
2021/09/28 05:34:28;;;;;;;6.15;3.22;;;;;;;14.53;76.47;100655.13;1086641;54;20069;-80
2021/09/28 05:35:33;;;;;;;5.97;2.90;;;;;;;14.59;76.24;100661.72;1086503;54;20122;-79
2021/09/28 05:36:34;;;;;;;6.55;3.20;;;;;;;14.47;76.32;100661.13;1088166;39;20535;-79
2021/09/28 05:37:40;;;;;;;5.90;3.20;;;;;;;14.25;77.20;100662.44;1086580;54;20110;-78
2021/09/28 05:38:42;;;;;;;6.72;3.25;;;;;;;14.14;77.52;100663.50;1086966;46;20046;-78
2021/09/28 05:39:48;;;;;;;4.63;2.55;;;;;;;14.22;77.24;100657.38;1086414;54;20153;-76
2021/09/28 05:40:50;;;;;;;6.57;2.72;;;;;;;14.31;76.90;100664.50;1087259;46;20049;-77
2021/09/28 05:41:55;;;;;;;7.15;3.17;;;;;;;14.28;76.88;100663.00;1088014;46;20030;-78
2021/09/28 05:43:06;;;;;;;5.95;2.90;;;;;;;14.20;77.15;100665.59;1086642;54;20045;-78
2021/09/28 05:44:08;;;;;;;8.63;2.90;;;;;;;14.30;76.93;100665.50;1086775;54;20031;-79
2021/09/28 05:45:12;;;;;;;8.88;2.75;;;;;;;14.30;76.62;100665.50;1086750;54;20053;-79
2021/09/28 05:46:17;;;;;;;7.93;2.50;;;;;;;14.42;76.72;100668.81;1088813;39;20252;-76
2021/09/28 05:47:24;;;;;;;6.80;3.33;;;;;;;14.40;76.35;100671.66;1086570;54;20602;-78
2021/09/28 05:48:25;;;;;;;6.28;2.92;;;;;;;14.48;76.16;100670.88;1086700;54;20042;-76
2021/09/28 05:49:29;;;;;;;5.18;2.38;;;;;;;14.44;76.23;100673.06;1087018;54;20121;-80
2021/09/28 05:50:34;;;;;;;5.65;3.08;;;;;;;14.50;76.29;100668.88;1086509;54;20073;-79
2021/09/28 05:51:37;;;;;;;6.63;2.63;;;;;;;14.55;75.85;100669.25;1085649;54;20102;-80
2021/09/28 05:52:43;;;;;;;5.60;2.65;;;;;;;14.57;75.85;100666.41;1085839;54;20038;-79
2021/09/28 05:53:45;;;;;;;5.05;2.75;;;;;;;14.57;75.67;100674.47;1085654;54;20042;-81
2021/09/28 05:54:51;;;;;;;6.32;3.30;;;;;;;14.54;76.00;100667.56;1085627;54;20050;-80
2021/09/28 05:55:57;;;;;;;7.22;3.33;;;;;;;14.54;75.92;100666.75;1086034;54;20034;-79
2021/09/28 05:56:58;;;;;;;6.43;3.17;;;;;;;14.57;75.63;100661.03;1087665;46;20134;-79
2021/09/28 05:58:02;;;;;;;5.20;2.88;;;;;;;14.60;75.80;100679.56;1086009;54;20042;-79
2021/09/28 05:59:04;;;;;;;9.15;3.38;;;;;;;14.59;75.76;100675.19;1085983;47;20039;-79
2021/09/28 06:00:10;;;;;;;8.25;3.60;;;;;;;14.51;75.95;100681.31;1085981;47;20061;-78
2021/09/28 06:01:11;;;;;;;5.75;3.38;;;;;;;14.54;75.93;100683.72;1086056;54;20042;-80
2021/09/28 06:02:19;;;;;;;4.82;2.60;;;;;;;14.54;75.56;100688.25;1085731;54;20038;-79
2021/09/28 06:03:20;;;;;;;7.10;3.25;;;;;;;14.43;76.10;100687.50;1086383;54;20041;-82
2021/09/28 06:04:24;;;;;;;6.15;2.92;;;;;;;14.46;76.00;100687.16;1086689;46;20050;-80
2021/09/28 06:05:29;;;;;;;6.53;3.08;;;;;;;14.48;75.75;100685.16;1086356;46;20042;-80
2021/09/28 06:06:31;;;;;;;6.15;2.67;;;;;;;14.46;75.65;100675.56;1086042;54;20038;-79
2021/09/28 06:07:35;;;;;;;5.15;2.90;;;;;;;14.50;75.74;100685.88;1086311;46;20590;-79
2021/09/28 06:08:38;;;;;;;5.50;2.30;;;;;;;14.56;75.48;100684.41;1085798;54;20062;-80
2021/09/28 06:09:44;;;;;;;6.68;2.90;;;;;;;14.59;75.50;100681.41;1086213;46;20090;-79
2021/09/28 06:10:45;;;;;;;5.00;2.58;;;;;;;14.64;75.24;100680.94;1086208;54;20033;-79
2021/09/28 06:11:51;;;;;;;5.53;3.08;;;;;;;14.67;75.24;100675.25;1085935;54;20042;-81
2021/09/28 06:12:55;;;;;;;7.72;3.33;;;;;;;14.65;75.20;100678.09;1085840;54;20038;-78
2021/09/28 06:13:57;;;;;;;6.35;3.00;;;;;;;14.69;75.31;100673.28;1085757;54;20053;-80
2021/09/28 06:15:01;;;;;;;5.75;2.63;;;;;;;14.70;75.14;100677.66;1086176;54;20034;-80
2021/09/28 06:16:05;;;;;;;7.00;3.25;;;;;;;14.74;74.99;100679.00;1086686;54;20591;-81
2021/09/28 06:17:07;;;;;;;6.35;3.30;;;;;;;14.63;75.14;100676.56;1086886;54;20042;-82
2021/09/28 06:18:14;;;;;;;7.03;4.00;;;;;;;14.48;75.72;100687.03;1087382;54;20031;-82
2021/09/28 06:19:16;;;;;;;8.65;4.35;;;;;;;14.29;76.21;100680.81;1088439;47;20042;-81
2021/09/28 06:20:20;;;;;;;9.48;5.22;;;;;;;14.17;76.41;100687.41;1088427;47;20026;-83
2021/09/28 06:21:22;;;;;;;7.80;4.10;;;;;;;14.32;75.68;100682.34;1086801;54;20034;-80
2021/09/28 06:22:27;;;;;;;7.38;4.43;;;;;;;14.32;75.56;100685.03;1086480;54;20030;-81
2021/09/28 06:23:31;;;;;;;9.10;4.70;;;;;;;14.30;75.97;100677.13;1087158;47;20041;-81
2021/09/28 06:24:34;;;;;;;9.65;5.53;;;;;;;14.13;76.11;100681.50;1086302;54;20041;-79
2021/09/28 06:25:38;;;;;;;8.05;5.20;;;;;;;13.97;76.48;100678.66;1086615;54;20042;-81
2021/09/28 06:26:39;;;;;;;8.27;5.25;;;;;;;13.98;76.68;100675.78;1087199;39;20291;-81
2021/09/28 06:27:43;;;;;;;11.98;7.53;;;;;;;13.95;76.68;100676.09;1085711;54;20038;-79